Black Creek, North Carolina
Current Conditions -  °F | °C
As of 1:15 PM on Thursday 30 Oct 2014 (Local Time) from KGWW Reporting Station
Scattered Clouds Scattered Clouds  
Wind Chill: 66°   Ceiling: Unl
Heat Index: 66°   Visibility: 10mi
Dew Point: 46°   Wind: 12mph
Humidity: 48%   Direction: 40°NE
Pressure: 30.01"   Gusts: 16mph
Location:  35.64°N, 77.93°W
Report Text: KGWW 301715Z AUTO 04010G14KT 10SM SCT043 19/08 A3001 RMK AO2 T01900076
Loading
Personal Weather Stations






























Interactive Weather Map
Tropical Storm Tracking
New forecast layout! Learn more

10-Day Weather Forecast

Advertisements
Track Severe Weather on mobile